Latest Weather Observations for Lombadina

IDW60801

Issued at 8:33 am WST Tuesday 26 July 2016 (issued every 30 minutes, with the page automatically refreshed every 10 minutes)

About weather observations | Map of weather stations | Latest weather observations for WA | Other Formats
Station Details ID: 503016 Name: LOMBADINA AIRSTRIP Lat: -16.52 Lon: 122.92 Height: 42.0 m
Data from the previous 72 hours. | See also: Recent months for locations in Western Australia
Date/Time
WST
Temp
°C
App
Temp
°C
Dew
Point
°C
Rel
Hum
%
Delta-T
°C
Wind Press
QNH
hPa
Press
MSL
hPa
Rain since
9am
mm
Dir  Spd
km/h
Gust
km/h
Spd
kts
Gust
kts
26/08:30am 25.8 21.6 5.9 28 10.3 SE 17 33 9 18 1015.0 1014.8 0.0
26/08:00am 24.9 20.4 6.1 30 9.7 SE 19 33 10 18 1014.8 1014.6 0.0
26/07:30am 23.9 20.2 6.2 32 9.1 SE 15 26 8 14 1014.6 1014.4 0.0
26/07:00am 23.2 19.4 5.6 32 8.9 SE 15 28 8 15 1014.5 1014.3 0.0
26/06:30am 22.8 19.1 6.1 34 8.5 SE 15 22 8 12 1014.1 1013.9 0.0
26/06:00am 22.9 19.6 6.2 34 8.5 SE 13 20 7 11 1013.8 1013.6 0.0
26/05:30am 23.2 19.5 6.1 33 8.7 SE 15 22 8 12 1013.6 1013.4 0.0
26/05:00am 23.4 19.9 5.3 31 9.1 SE 13 24 7 13 1013.3 1013.1 0.0
26/04:30am 23.5 20.0 5.4 31 9.1 SE 13 24 7 13 1013.2 1013.0 0.0
26/04:00am 23.7 20.0 4.6 29 9.5 SE 13 24 7 13 1013.1 1012.9 0.0
26/03:30am 23.9 20.6 4.8 29 9.5 SE 11 22 6 12 1013.0 1012.8 0.0
26/03:00am 24.3 20.6 4.6 28 9.8 SE 13 22 7 12 1012.9 1012.7 0.0
26/02:30am 24.8 21.2 5.1 28 10.0 SSE 13 24 7 13 1013.1 1012.9 0.0
26/02:00am 25.0 21.4 5.2 28 10.0 SE 13 26 7 14 1013.2 1013.0 0.0
26/01:30am 24.9 21.8 5.7 29 9.8 SE 11 19 6 10 1013.4 1013.2 0.0
26/01:00am 24.5 21.9 7.6 34 8.9 SSE 11 22 6 12 1013.5 1013.3 0.0
26/12:30am 24.8 23.2 10.3 40 8.0 SSE 9 20 5 11 1013.8 1013.6 0.0
26/12:00am 22.8 23.7 16.1 66 4.1 S 6 11 3 6 1013.8 1013.6 0.0
 
Date/Time
WST
Temp
°C
App
Temp
°C
Dew
Point
°C
Rel
Hum
%
Delta-T
°C
Wind Press
QNH
hPa
Press
MSL
hPa
Rain since
9am
mm
Dir  Spd
km/h
Gust
km/h
Spd
kts
Gust
kts
25/11:30pm 20.6 21.9 17.2 81 2.1 SSW 6 7 3 4 1014.0 1013.8 0.0
25/11:00pm 20.7 22.1 16.3 76 2.7 SSW 4 6 2 3 1013.9 1013.7 0.0
25/10:30pm 21.4 22.9 15.7 70 3.4 W 2 4 1 2 1014.0 1013.8 0.0
25/10:00pm 22.7 24.1 16.5 68 3.8 W 4 7 2 4 1014.0 1013.8 0.0
25/09:30pm 23.1 24.3 16.9 68 3.8 WNW 6 7 3 4 1014.0 1013.8 0.0
25/09:00pm 23.3 24.2 16.6 66 4.1 SSW 7 11 4 6 1014.0 1013.8 0.0
25/08:30pm 23.3 24.2 16.6 66 4.1 SSW 7 11 4 6 1013.8 1013.6 0.0
25/08:00pm 23.0 23.0 13.5 55 5.5 SSW 6 9 3 5 1013.7 1013.5 0.0
25/07:30pm 23.4 22.5 10.5 44 7.1 SSW 6 9 3 5 1013.5 1013.3 0.0
25/07:00pm 23.2 22.7 10.6 45 7.0 SSE 4 6 2 3 1013.2 1013.0 0.0
25/06:30pm 24.2 24.3 11.5 45 7.2 SSW 2 4 1 2 1012.8 1012.6 0.0
25/06:00pm 25.3 25.5 10.4 39 8.3 CALM 0 2 0 1 1012.6 1012.4 0.0
25/05:30pm 28.1 27.7 9.9 32 10.2 ESE 2 6 1 3 1012.1 1011.9 0.0
25/05:00pm 29.7 28.4 9.3 28 11.4 ESE 6 9 3 5 1011.8 1011.6 0.0
25/04:30pm 30.0 28.5 9.0 27 11.7 ESE 7 13 4 7 1011.4 1011.2 0.0
25/04:00pm 30.5 28.7 9.4 27 11.9 ESE 9 15 5 8 1011.4 1011.2 0.0
25/03:30pm 30.3 28.6 9.8 28 11.6 ESE 9 15 5 8 1011.2 1011.0 0.0
25/03:00pm 30.2 27.8 8.6 26 12.0 ESE 11 20 6 11 1011.2 1011.0 0.0
25/02:30pm 29.8 27.2 9.3 28 11.5 ESE 13 20 7 11 1011.3 1011.1 0.0
25/02:00pm 29.3 26.2 8.9 28 11.3 ESE 15 28 8 15 1011.5 1011.3 0.0
25/01:30pm 30.3 27.2 8.7 26 12.0 ESE 15 22 8 12 1011.8 1011.6 0.0
25/01:00pm 30.2 27.2 9.1 27 11.8 ESE 15 26 8 14 1012.2 1012.0 0.0
25/12:30pm 29.3 25.8 8.9 28 11.3 ESE 17 28 9 15 1012.9 1012.7 0.0
25/12:00pm 28.6 24.6 8.3 28 11.1 ESE 19 30 10 16 1013.5 1013.3 0.0
25/11:30am 27.7 24.0 9.5 32 10.1 ESE 19 33 10 18 1014.0 1013.8 0.0
25/11:00am 27.1 23.4 9.5 33 9.7 ESE 19 30 10 16 1014.5 1014.3 0.0
25/10:30am 27.5 24.3 9.8 33 9.9 SE 17 30 9 16 1014.9 1014.7 0.0
25/10:00am 26.3 22.4 8.8 33 9.5 SE 19 32 10 17 1015.1 1014.9 0.0
25/09:30am 25.8 22.3 8.8 34 9.2 SE 17 32 9 17 1015.2 1015.0 0.0
25/09:00am 24.6 20.3 7.7 34 8.9 SE 20 35 11 19 1015.4 1015.2 0.0
25/08:30am 24.1 19.8 6.8 33 9.0 SE 19 35 10 19 1015.4 1015.2 0.0
25/08:00am 23.5 19.6 7.2 35 8.5 SE 17 30 9 16 1015.1 1014.9 0.0
25/07:30am 22.9 19.8 7.1 36 8.2 SE 13 30 7 16 1014.8 1014.6 0.0
25/07:00am 21.8 18.5 6.5 37 7.8 SE 13 24 7 13 1014.4 1014.2 0.0
25/06:30am 21.4 17.7 6.5 38 7.6 SE 15 28 8 15 1014.1 1013.9 0.0
25/06:00am 21.5 18.0 7.0 39 7.4 SE 15 24 8 13 1013.7 1013.5 0.0
25/05:30am 21.5 18.9 7.7 41 7.2 SE 11 20 6 11 1013.3 1013.1 0.0
25/05:00am 21.6 18.6 7.8 41 7.2 SE 13 24 7 13 1013.0 1012.8 0.0
25/04:30am 22.1 19.1 7.5 39 7.6 SE 13 20 7 11 1012.9 1012.7 0.0
25/04:00am 22.4 19.1 6.2 35 8.2 SE 13 20 7 11 1013.0 1012.8 0.0
25/03:30am 23.0 20.0 5.9 33 8.7 SE 11 19 6 10 1013.0 1012.8 0.0
25/03:00am 23.4 20.6 5.3 31 9.1 SE 9 20 5 11 1013.0 1012.8 0.0
25/02:30am 24.3 20.6 4.6 28 9.8 SE 13 26 7 14 1013.1 1012.9 0.0
25/02:00am 24.5 21.2 4.8 28 9.9 SE 11 22 6 12 1013.2 1013.0 0.0
25/01:30am 25.0 22.1 4.7 27 10.2 SSE 9 20 5 11 1013.2 1013.0 0.0
25/01:00am 25.5 22.3 5.1 27 10.4 SSE 11 24 6 13 1013.6 1013.4 0.0
25/12:30am 25.2 22.5 5.4 28 10.1 SE 9 19 5 10 1013.8 1013.6 0.0
25/12:00am 25.9 22.8 5.5 27 10.5 SSE 11 19 6 10 1013.7 1013.5 0.0
 
Date/Time
WST
Temp
°C
App
Temp
°C
Dew
Point
°C
Rel
Hum
%
Delta-T
°C
Wind Press
QNH
hPa
Press
MSL
hPa
Rain since
9am
mm
Dir  Spd
km/h
Gust
km/h
Spd
kts
Gust
kts
24/11:30pm 25.4 22.9 6.6 30 9.8 SSE 9 15 5 8 1013.8 1013.6 0.0
24/11:00pm 21.6 21.2 12.5 56 5.2 SSE 6 9 3 5 1013.9 1013.7 0.0
24/10:30pm 19.9 21.2 14.0 69 3.4 CALM 0 2 0 1 1014.1 1013.9 0.0
24/10:00pm 20.3 21.0 13.3 64 4.0 SW 2 6 1 3 1014.2 1014.0 0.0
24/09:30pm 20.9 21.2 12.1 57 4.9 SSW 2 7 1 4 1014.2 1014.0 0.0
24/09:00pm 21.7 20.6 8.6 43 6.9 SSW 4 6 2 3 1014.1 1013.9 0.0
24/08:30pm 22.8 21.1 7.4 37 8.0 SSW 6 9 3 5 1014.1 1013.9 0.0
24/08:00pm 24.1 22.7 7.3 34 8.8 SSE 4 6 2 3 1013.6 1013.4 0.0
24/07:30pm 24.1 22.8 7.7 35 8.7 S 4 6 2 3 1013.3 1013.1 0.0
24/07:00pm 24.7 24.0 8.6 36 8.7 S 2 4 1 2 1012.7 1012.5 0.0
24/06:30pm 25.1 24.3 8.1 34 9.1 SSE 2 4 1 2 1012.3 1012.1 0.0
24/06:00pm 26.4 25.7 8.4 32 9.7 SSE 2 6 1 3 1012.0 1011.8 0.0
24/05:30pm 29.0 28.2 8.1 27 11.4 SE 2 6 1 3 1011.8 1011.6 0.0
24/05:00pm 31.0 29.3 7.5 23 12.8 SE 6 13 3 7 1011.5 1011.3 0.0
24/04:30pm 31.2 28.9 7.6 23 12.9 SE 9 19 5 10 1011.4 1011.2 0.0
24/04:00pm 31.5 28.9 7.9 23 13.0 SE 11 19 6 10 1011.2 1011.0 0.0
24/03:30pm 31.1 28.1 7.5 23 12.9 SE 13 22 7 12 1011.2 1011.0 0.0
24/03:00pm 30.9 27.6 8.0 24 12.6 ESE 15 32 8 17 1011.2 1011.0 0.0
24/02:30pm 30.8 27.8 7.9 24 12.6 SE 13 28 7 15 1011.3 1011.1 0.0
24/02:00pm 30.3 27.2 8.7 26 12.0 ESE 15 28 8 15 1011.6 1011.4 0.0
24/01:30pm 29.6 25.6 8.1 26 11.8 SE 19 30 10 16 1011.9 1011.7 0.0
24/01:00pm 28.8 24.9 8.5 28 11.1 SE 19 35 10 19 1012.3 1012.1 0.0
24/12:30pm 28.6 25.0 9.8 31 10.5 SE 19 30 10 16 1012.7 1012.5 0.0
24/12:00pm 27.4 23.1 7.8 29 10.6 ESE 20 32 11 17 1013.2 1013.0 0.0
24/11:30am 27.4 23.4 8.3 30 10.4 SE 19 32 10 17 1013.8 1013.6 0.0
24/11:00am 26.9 23.0 8.8 32 9.9 ESE 19 35 10 19 1014.2 1014.0 0.0
24/10:30am 27.0 23.2 9.8 34 9.6 ESE 20 35 11 19 1014.7 1014.5 0.0
24/10:00am 26.2 22.2 9.1 34 9.3 SE 20 37 11 20 1015.0 1014.8 0.0
24/09:30am 25.8 21.8 9.2 35 9.1 SE 20 37 11 20 1015.2 1015.0 0.0
24/09:00am 25.0 21.0 8.9 36 8.7 SE 20 39 11 21 1015.3 1015.1 0.0
24/08:30am 24.3 20.3 9.1 38 8.2 SE 20 39 11 21 1015.3 1015.1 0.0
24/08:00am 24.0 20.4 8.4 37 8.3 SE 17 28 9 15 1015.0 1014.8 0.0
24/07:30am 23.2 19.8 7.7 37 8.1 SE 15 30 8 16 1015.0 1014.8 0.0
24/07:00am 22.2 19.6 7.6 39 7.6 SE 11 20 6 11 1014.5 1014.3 0.0
24/06:30am 21.6 18.5 7.1 39 7.5 SE 13 24 7 13 1014.3 1014.1 0.0
24/06:00am 21.7 18.6 7.2 39 7.5 SE 13 22 7 12 1013.9 1013.7 0.0
24/05:30am 21.3 18.6 7.2 40 7.2 SSE 11 22 6 12 1013.6 1013.4 0.0
24/05:00am 21.7 19.4 7.5 40 7.4 SSE 9 17 5 9 1013.3 1013.1 0.0
24/04:30am 21.8 20.0 8.0 41 7.2 SSE 7 15 4 8 1013.0 1012.8 0.0
24/04:00am 22.4 20.8 8.1 40 7.5 SSE 6 11 3 6 1012.7 1012.5 0.0
24/03:30am 22.9 21.3 8.6 40 7.6 SSE 7 11 4 6 1012.5 1012.3 0.0
24/03:00am 20.3 19.9 11.2 56 5.0 S 4 7 2 4 1012.5 1012.3 0.0
24/02:30am 19.8 19.3 12.1 61 4.3 SSW 6 9 3 5 1012.5 1012.3 0.0
24/02:00am 21.4 20.9 12.0 55 5.3 SSW 6 9 3 5 1012.6 1012.4 0.0
24/01:30am 21.4 21.1 12.8 58 4.9 SSW 6 11 3 6 1012.5 1012.3 0.0
24/01:00am 21.7 21.3 13.1 58 4.9 SSW 7 13 4 7 1012.7 1012.5 0.0
24/12:30am 21.7 21.4 13.3 59 4.8 SSW 7 11 4 6 1012.6 1012.4 0.0
24/12:00am 19.7 20.0 14.5 72 3.0 SSW 6 7 3 4 1012.7 1012.5 0.0
 
Date/Time
WST
Temp
°C
App
Temp
°C
Dew
Point
°C
Rel
Hum
%
Delta-T
°C
Wind Press
QNH
hPa
Press
MSL
hPa
Rain since
9am
mm
Dir  Spd
km/h
Gust
km/h
Spd
kts
Gust
kts
23/11:30pm 20.3 21.0 15.7 75 2.7 SSW 6 9 3 5 1012.8 1012.6 0.0
23/11:00pm 18.9 20.3 17.4 91 0.9 SSW 6 7 3 4 1012.8 1012.6 0.0
23/10:30pm 20.1 21.9 18.4 90 1.1 SSW 6 9 3 5 1013.1 1012.9 0.0
23/10:00pm 20.4 22.9 19.9 97 0.3 SW 6 7 3 4 1013.1 1012.9 0.0
23/09:30pm 20.9 23.6 20.2 96 0.4 WSW 6 7 3 4 1013.2 1013.0 0.0
23/09:00pm 21.0 24.1 20.3 96 0.5 WSW 4 7 2 4 1013.1 1012.9 0.0
23/08:30pm 21.1 23.9 20.4 96 0.5 SW 6 7 3 4 1013.1 1012.9 0.0
23/08:00pm 21.0 23.4 20.0 94 0.6 SW 7 11 4 6 1012.9 1012.7 0.0
23/07:30pm 20.7 23.1 17.9 84 1.7 WNW 2 4 1 2 1012.5 1012.3 0.0
23/07:00pm 22.5 25.4 19.9 85 1.7 N 4 7 2 4 1012.1 1011.9 0.0
23/06:30pm 22.5 26.0 19.5 83 1.9 CALM 0 4 0 2 1011.8 1011.6 0.0
23/06:00pm 23.8 26.9 19.5 77 2.8 W 2 4 1 2 1011.7 1011.5 0.0
23/05:30pm 25.6 28.2 19.3 68 4.1 NW 4 6 2 3 1011.5 1011.3 0.0
23/05:00pm 27.4 29.5 18.1 57 5.9 WNW 4 7 2 4 1011.3 1011.1 0.0
23/04:30pm 28.1 29.5 17.3 52 6.8 NW 6 9 3 5 1011.1 1010.9 0.0
23/04:00pm 28.6 29.0 15.2 44 8.2 NW 7 11 4 6 1011.2 1011.0 0.0
23/03:30pm 29.2 29.8 15.7 44 8.3 NW 7 13 4 7 1011.3 1011.1 0.0
23/03:00pm 28.9 29.6 17.1 49 7.4 NW 9 15 5 8 1011.4 1011.2 0.0
23/02:30pm 30.0 31.1 18.8 51 7.3 NW 11 17 6 9 1011.4 1011.2 0.0
23/02:00pm 29.7 30.9 18.2 50 7.4 WNW 9 15 5 8 1011.7 1011.5 0.0
23/01:30pm 29.9 31.5 17.0 45 8.1 NNW 4 9 2 5 1012.1 1011.9 0.0
23/01:00pm 29.5 29.8 14.9 41 8.9 E 7 15 4 8 1012.5 1012.3 0.0
23/12:30pm 29.5 29.6 14.5 40 9.1 NE 7 15 4 8 1012.9 1012.7 0.0
23/12:00pm 28.9 28.6 14.3 40 8.8 ENE 9 15 5 8 1013.4 1013.2 0.0
23/11:30am 28.9 28.6 14.3 40 8.8 E 9 17 5 9 1013.9 1013.7 0.0
23/11:00am 27.5 27.0 13.8 43 8.2 SE 9 17 5 9 1014.3 1014.1 0.0
23/10:30am 27.5 26.8 14.2 44 8.0 E 11 19 6 10 1014.5 1014.3 0.0
23/10:00am 26.6 26.0 15.6 50 6.7 ESE 13 20 7 11 1014.7 1014.5 0.0
23/09:30am 25.8 25.6 15.8 54 6.1 ESE 11 20 6 11 1015.0 1014.8 0.0
23/09:00am 25.8 25.6 15.8 54 6.1 ESE 11 19 6 10 1014.8 1014.6 0.0

Other Formats:

Comma delimited format used in spreadsheet applications
http://www.bom.gov.au/fwo/IDW60801/IDW60801.99206.axf

JavaScript Object Notation format (JSON) in row-major order
http://www.bom.gov.au/fwo/IDW60801/IDW60801.99206.json